Time;durP1;ratioP1;P1;durP2;ratioP2;P2;SDS_P1;SDS_P2;PMS_P1;PMS_P2;Temp;Humidity;BMP_temperature;BMP_pressure;BME280_temperature;BME280_humidity;BME280_pressure;Samples;Min_cycle;Max_cycle;Signal;HPM_P1;HPM_P2
2021/07/21 00:00:20;;;;;;;12.30;9.93;;;;;;;15.34;90.46;96317.34;5010177;28;20432;-74
2021/07/21 00:02:45;;;;;;;15.35;11.23;;;;;;;15.40;90.44;96319.50;5011225;28;20420;-74
2021/07/21 00:05:13;;;;;;;11.95;10.48;;;;;;;15.45;90.11;96317.38;5011338;28;20600;-74
2021/07/21 00:07:38;;;;;;;12.23;10.50;;;;;;;15.43;90.35;96316.69;5011460;28;20895;-74
2021/07/21 00:10:08;;;;;;;14.20;9.33;;;;;;;15.54;87.79;96314.09;5011354;28;20404;-74
2021/07/21 00:15:18;;;;;;;12.82;8.43;;;;;;;15.30;86.91;96318.50;5011050;28;20423;-74
2021/07/21 00:17:45;;;;;;;11.03;9.30;;;;;;;15.14;87.29;96324.00;5011331;28;20801;-74
2021/07/21 00:20:14;;;;;;;12.63;8.85;;;;;;;15.04;87.61;96328.22;5011027;28;20507;-74
2021/07/21 00:22:42;;;;;;;11.48;8.35;;;;;;;15.21;85.52;96320.84;5009699;28;20431;-74
2021/07/21 00:25:12;;;;;;;11.38;8.05;;;;;;;15.14;84.75;96319.63;5011115;28;20475;-74
2021/07/21 00:27:39;;;;;;;9.02;7.93;;;;;;;14.86;87.00;96312.09;5010011;28;20427;-74
2021/07/21 00:30:06;;;;;;;12.60;8.65;;;;;;;14.83;86.21;96310.56;5011031;28;20428;-74
2021/07/21 00:32:32;;;;;;;10.82;8.50;;;;;;;14.61;88.43;96306.03;5010808;28;20818;-74
2021/07/21 00:34:57;;;;;;;11.27;8.13;;;;;;;14.73;85.99;96305.16;5009735;28;20480;-74
2021/07/21 00:37:23;;;;;;;13.15;7.75;;;;;;;14.74;85.55;96296.38;5010644;28;20409;-74
2021/07/21 00:39:48;;;;;;;8.30;7.43;;;;;;;14.62;84.58;96299.03;5011054;28;20974;-74
2021/07/21 00:42:15;;;;;;;12.53;8.73;;;;;;;14.34;87.21;96294.88;5010913;28;20498;-74
2021/07/21 00:44:40;;;;;;;10.07;8.55;;;;;;;14.33;86.61;96295.84;5009712;28;20463;-74
2021/07/21 00:47:06;;;;;;;9.70;8.40;;;;;;;14.19;88.53;96294.16;5009357;28;20866;-74
2021/07/21 00:49:31;;;;;;;9.43;8.37;;;;;;;14.12;89.02;96305.94;5009700;28;20439;-74
2021/07/21 00:51:57;;;;;;;9.97;8.17;;;;;;;14.16;89.01;96302.19;5010687;28;20826;-74
2021/07/21 00:54:23;;;;;;;13.18;9.02;;;;;;;14.20;87.44;96298.44;5010863;28;20825;-74
2021/07/21 00:56:49;;;;;;;13.20;8.82;;;;;;;14.15;88.52;96297.94;5010636;28;20783;-74
2021/07/21 00:59:17;;;;;;;10.83;8.63;;;;;;;14.18;87.15;96293.34;5010797;28;20408;-74
2021/07/21 01:01:42;;;;;;;15.00;9.02;;;;;;;14.12;88.34;96292.94;5010512;28;20817;-74
2021/07/21 01:04:08;;;;;;;14.93;9.97;;;;;;;13.77;91.04;96297.00;5010855;28;20415;-73
2021/07/21 01:06:33;;;;;;;12.63;8.90;;;;;;;14.25;86.22;96297.19;5010424;28;20508;-73
2021/07/21 01:08:59;;;;;;;9.00;8.03;;;;;;;14.19;87.63;96297.59;5010740;28;20847;-73
2021/07/21 01:11:30;;;;;;;9.73;8.13;;;;;;;14.13;85.40;96302.44;5010759;28;20417;-73
2021/07/21 01:14:01;;;;;;;12.65;8.27;;;;;;;13.87;87.98;96298.97;5010655;28;20417;-73
2021/07/21 01:16:32;;;;;;;11.20;8.48;;;;;;;13.93;87.69;96298.56;5010459;28;20412;-73
2021/07/21 01:19:05;;;;;;;12.17;8.73;;;;;;;13.89;88.74;96297.09;5010527;28;20483;-73
2021/07/21 01:21:58;;;;;;;13.95;9.07;;;;;;;13.73;90.02;96300.72;5010490;28;20428;-73
2021/07/21 01:24:26;;;;;;;11.43;8.13;;;;;;;13.65;91.13;96292.59;5009319;28;20432;-73
2021/07/21 01:27:16;;;;;;;10.10;8.63;;;;;;;13.76;90.70;96294.50;5010346;28;20444;-73
2021/07/21 01:29:45;;;;;;;11.43;9.10;;;;;;;13.78;91.42;96280.41;5010475;28;20424;-73
2021/07/21 01:32:12;;;;;;;11.65;9.50;;;;;;;13.88;93.08;96287.63;5013968;28;20463;-73
2021/07/21 01:34:39;;;;;;;13.75;10.20;;;;;;;14.01;93.49;96285.84;5014406;28;20436;-73
2021/07/21 01:37:06;;;;;;;15.13;10.43;;;;;;;14.07;93.85;96284.59;5014096;28;20420;-73
2021/07/21 01:39:35;;;;;;;12.15;10.30;;;;;;;14.09;95.13;96291.38;5014271;28;20589;-73
2021/07/21 01:42:04;;;;;;;13.05;10.27;;;;;;;14.23;94.21;96283.44;5012785;28;20428;-73
2021/07/21 01:44:33;;;;;;;17.23;11.32;;;;;;;14.12;95.80;96283.34;5014192;28;20416;-73
2021/07/21 01:47:01;;;;;;;14.52;11.05;;;;;;;14.15;95.82;96279.69;5012738;28;20450;-73
2021/07/21 01:49:29;;;;;;;10.33;8.03;;;;;;;14.34;88.24;96281.84;5014114;28;20417;-73
2021/07/21 01:51:57;;;;;;;11.33;7.83;;;;;;;14.29;88.23;96284.78;5013866;28;20490;-74
2021/07/21 01:54:24;;;;;;;9.35;7.32;;;;;;;14.15;87.10;96277.09;5013678;28;20805;-74
2021/07/21 01:56:50;;;;;;;9.82;7.70;;;;;;;14.12;85.97;96274.69;5012291;28;20502;-73
2021/07/21 01:59:17;;;;;;;9.27;7.87;;;;;;;13.73;87.91;96282.50;5013746;28;20460;-73
2021/07/21 02:01:45;;;;;;;9.73;8.43;;;;;;;13.50;90.06;96283.22;5013441;28;20425;-73
2021/07/21 02:04:11;;;;;;;10.15;8.02;;;;;;;13.42;90.58;96282.88;5014316;28;20409;-74
2021/07/21 02:06:37;;;;;;;12.13;9.32;;;;;;;13.68;89.15;96274.19;5013373;28;20417;-74
2021/07/21 02:09:05;;;;;;;12.90;9.60;;;;;;;13.46;92.65;96279.13;5013598;28;20416;-74
2021/07/21 02:11:30;;;;;;;10.60;8.77;;;;;;;13.45;93.32;96274.88;5013652;28;20515;-74
2021/07/21 02:13:58;;;;;;;12.10;8.18;;;;;;;13.66;88.17;96275.22;5013625;28;20497;-74
2021/07/21 02:16:24;;;;;;;10.10;7.70;;;;;;;13.61;87.43;96278.13;5013430;28;20433;-74
2021/07/21 02:18:53;;;;;;;9.35;7.75;;;;;;;13.57;86.12;96276.66;5013730;28;20763;-74
2021/07/21 02:21:19;;;;;;;9.90;8.15;;;;;;;13.42;87.56;96277.66;5013430;28;20482;-74
2021/07/21 02:23:45;;;;;;;8.90;7.50;;;;;;;13.15;89.79;96272.47;5013394;28;20413;-73
2021/07/21 02:26:11;;;;;;;8.98;8.02;;;;;;;13.20;88.55;96278.19;5013211;28;20448;-73
2021/07/21 02:28:36;;;;;;;10.30;8.87;;;;;;;13.29;89.49;96283.69;5013381;28;20486;-73
2021/07/21 02:31:08;;;;;;;12.50;9.27;;;;;;;13.23;89.90;96268.47;5013204;28;20440;-73
2021/07/21 02:33:43;;;;;;;11.57;8.82;;;;;;;13.02;92.15;96272.47;5013190;28;20425;-73
2021/07/21 02:36:09;;;;;;;11.40;9.60;;;;;;;12.93;93.60;96275.63;5012844;28;20413;-73
2021/07/21 02:38:35;;;;;;;10.80;8.80;;;;;;;12.98;93.57;96281.38;5013356;28;20421;-73
2021/07/21 02:41:01;;;;;;;11.80;8.60;;;;;;;13.05;93.30;96277.44;5015526;28;20512;-73
2021/07/21 02:43:26;;;;;;;13.55;9.40;;;;;;;13.18;91.14;96274.88;5019120;28;20428;-73
2021/07/21 02:45:52;;;;;;;16.77;8.53;;;;;;;13.29;90.13;96275.06;5017656;28;20416;-73
2021/07/21 02:48:17;;;;;;;12.47;9.50;;;;;;;13.36;91.36;96278.09;5013142;28;20409;-73
2021/07/21 02:50:50;;;;;;;13.13;8.80;;;;;;;13.17;93.51;96278.44;5012841;28;20413;-73
2021/07/21 02:53:22;;;;;;;10.88;8.60;;;;;;;13.13;92.96;96279.56;5012718;28;20428;-73
2021/07/21 02:55:51;;;;;;;13.07;9.40;;;;;;;13.03;93.74;96277.53;5012549;28;20487;-73
2021/07/21 02:58:27;;;;;;;10.68;9.07;;;;;;;13.06;93.89;96276.53;5012749;28;20765;-73
2021/07/21 03:00:56;;;;;;;12.90;10.40;;;;;;;13.24;94.05;96279.72;5011303;28;20459;-73
2021/07/21 03:03:22;;;;;;;13.80;10.02;;;;;;;13.32;92.64;96275.69;5012399;28;20413;-73
2021/07/21 03:05:49;;;;;;;10.53;9.43;;;;;;;13.33;93.01;96279.13;5011052;28;20819;-73
2021/07/21 03:08:19;;;;;;;9.70;8.68;;;;;;;13.19;92.23;96284.34;5012569;28;20412;-73
2021/07/21 03:10:45;;;;;;;9.15;7.95;;;;;;;13.25;89.80;96287.44;5012462;28;20413;-74
2021/07/21 03:13:14;;;;;;;9.35;7.65;;;;;;;13.34;85.48;96279.94;5012409;28;20822;-74
2021/07/21 03:15:42;;;;;;;12.88;7.55;;;;;;;13.03;87.30;96284.50;5012063;28;20420;-74
2021/07/21 03:18:09;;;;;;;11.05;7.10;;;;;;;12.81;89.23;96280.69;5012333;28;20439;-74
2021/07/21 03:20:35;;;;;;;9.18;7.68;;;;;;;12.80;90.65;96286.00;5012489;28;20429;-73
2021/07/21 03:23:02;;;;;;;11.00;7.43;;;;;;;13.00;86.92;96282.09;5012397;28;20419;-73
2021/07/21 03:25:30;;;;;;;10.43;7.50;;;;;;;12.82;90.20;96281.50;5012164;28;20910;-73
2021/07/21 03:27:56;;;;;;;11.55;7.40;;;;;;;12.73;90.63;96282.94;5012142;28;20417;-73
2021/07/21 03:30:23;;;;;;;7.90;6.53;;;;;;;12.84;88.33;96288.28;5012073;28;20499;-73
2021/07/21 03:32:51;;;;;;;10.80;8.07;;;;;;;12.90;88.11;96289.66;5010860;28;20416;-73
2021/07/21 03:35:17;;;;;;;9.02;7.95;;;;;;;12.79;89.18;96290.34;5010810;28;20424;-73
2021/07/21 03:37:45;;;;;;;9.85;8.85;;;;;;;12.77;90.76;96292.22;5010748;28;20428;-73
2021/07/21 03:40:11;;;;;;;10.88;9.63;;;;;;;12.75;90.32;96294.06;5011938;28;20448;-73
2021/07/21 03:42:39;;;;;;;14.25;9.75;;;;;;;12.63;91.94;96300.03;5011761;28;20432;-73
2021/07/21 03:45:08;;;;;;;12.18;9.32;;;;;;;12.37;94.43;96298.22;5011860;28;20494;-73
2021/07/21 03:47:34;;;;;;;9.68;8.68;;;;;;;12.44;93.54;96296.91;5011822;28;20926;-73
2021/07/21 03:50:00;;;;;;;10.43;8.90;;;;;;;12.40;93.45;96298.03;5012092;28;20417;-73
2021/07/21 03:52:27;;;;;;;13.13;9.90;;;;;;;12.34;95.26;96300.06;5011800;28;20786;-73
2021/07/21 03:54:53;;;;;;;14.15;10.70;;;;;;;12.36;95.55;96292.19;5011513;28;20420;-73
2021/07/21 03:57:20;;;;;;;11.93;10.52;;;;;;;12.29;96.80;96298.69;5011465;28;20420;-73
2021/07/21 03:59:47;;;;;;;13.73;10.23;;;;;;;12.30;97.40;96306.38;5011805;28;20416;-73
2021/07/21 04:02:13;;;;;;;14.55;10.63;;;;;;;12.38;96.68;96300.72;5011518;28;20432;-73
2021/07/21 04:04:40;;;;;;;12.38;10.32;;;;;;;12.37;97.24;96293.03;5011785;28;20779;-73
2021/07/21 04:07:06;;;;;;;12.65;9.45;;;;;;;12.35;97.06;96301.75;5011542;28;20923;-73
2021/07/21 04:09:34;;;;;;;11.75;8.52;;;;;;;12.54;94.21;96304.03;5011539;28;20417;-73
2021/07/21 04:12:00;;;;;;;13.05;9.20;;;;;;;12.49;95.93;96306.06;5011363;28;20424;-73
2021/07/21 04:14:27;;;;;;;12.65;9.10;;;;;;;12.45;96.48;96296.81;5011679;28;20413;-73
2021/07/21 04:16:55;;;;;;;10.93;8.50;;;;;;;12.62;94.24;96308.75;5011527;28;20412;-73
2021/07/21 04:19:23;;;;;;;9.43;7.55;;;;;;;12.64;92.54;96308.66;5011365;28;20417;-74
2021/07/21 04:21:50;;;;;;;9.90;6.55;;;;;;;12.66;92.01;96310.25;5011246;28;20810;-73
2021/07/21 04:24:18;;;;;;;7.88;7.07;;;;;;;12.49;93.60;96307.84;5011192;28;20413;-74
2021/07/21 04:26:43;;;;;;;8.55;6.90;;;;;;;12.45;94.32;96317.59;5011035;28;20916;-74
2021/07/21 04:29:10;;;;;;;11.60;8.13;;;;;;;12.62;93.72;96307.94;5011676;28;20424;-74
2021/07/21 04:31:37;;;;;;;13.83;8.87;;;;;;;12.49;95.11;96313.03;5009866;28;20413;-73
2021/07/21 04:34:05;;;;;;;9.77;7.50;;;;;;;12.58;93.36;96309.88;5011440;28;20432;-73
2021/07/21 04:36:33;;;;;;;8.18;7.07;;;;;;;12.66;90.66;96312.84;5009798;28;20428;-73
2021/07/21 04:38:59;;;;;;;8.25;7.38;;;;;;;12.57;91.46;96310.81;5007483;28;20431;-73
2021/07/21 04:41:25;;;;;;;10.95;7.97;;;;;;;12.74;89.93;96315.78;5010708;28;20973;-73
2021/07/21 04:43:51;;;;;;;12.73;9.75;;;;;;;12.89;90.71;96311.38;5010785;28;20412;-74
2021/07/21 04:46:17;;;;;;;13.38;9.63;;;;;;;12.72;93.40;96312.47;5011097;28;20417;-73
2021/07/21 04:48:43;;;;;;;11.40;10.20;;;;;;;12.56;96.48;96314.31;5017424;28;20419;-72
2021/07/21 04:51:11;;;;;;;12.63;10.70;;;;;;;12.54;97.94;96322.22;5009276;28;20421;-72
2021/07/21 04:53:37;;;;;;;12.10;10.63;;;;;;;12.58;99.01;96322.88;5010593;28;20420;-76
2021/07/21 04:56:03;;;;;;;11.27;9.85;;;;;;;12.69;98.69;96319.63;5010024;28;20424;-75
2021/07/21 04:58:28;;;;;;;17.13;11.80;;;;;;;12.78;98.75;96325.06;5009423;28;20424;-76
2021/07/21 05:00:56;;;;;;;12.43;11.10;;;;;;;12.98;98.45;96325.59;5008079;28;20428;-76
2021/07/21 05:03:22;;;;;;;11.73;10.38;;;;;;;13.21;98.45;96326.72;5010575;28;20496;-76
2021/07/21 05:05:47;;;;;;;11.35;10.15;;;;;;;13.40;97.57;96329.81;5010610;28;20412;-76
2021/07/21 05:08:14;;;;;;;12.13;10.40;;;;;;;13.64;95.37;96334.34;5010809;28;20424;-77
2021/07/21 05:10:40;;;;;;;13.25;11.20;;;;;;;13.76;95.92;96333.53;5014567;28;20420;-75
2021/07/21 05:13:06;;;;;;;14.13;10.65;;;;;;;13.88;94.91;96330.13;5015930;28;20416;-76
2021/07/21 05:15:32;;;;;;;13.53;10.47;;;;;;;13.91;94.69;96336.91;5015023;28;20416;-72
2021/07/21 05:17:57;;;;;;;12.00;10.43;;;;;;;14.02;93.97;96327.41;5015347;28;20512;-78
2021/07/21 05:20:23;;;;;;;11.50;10.30;;;;;;;14.02;93.38;96329.19;5015152;28;20416;-77
2021/07/21 05:22:48;;;;;;;11.95;10.50;;;;;;;14.14;93.11;96336.16;5014880;28;20429;-78
2021/07/21 05:25:16;;;;;;;16.23;10.50;;;;;;;14.27;92.73;96336.16;5014819;28;20527;-76
2021/07/21 05:27:41;;;;;;;12.13;10.27;;;;;;;14.42;92.11;96337.69;5015175;28;20421;-77
2021/07/21 05:30:08;;;;;;;14.77;10.80;;;;;;;14.59;91.04;96341.78;5016940;28;20503;-83
2021/07/21 05:32:33;;;;;;;16.48;11.75;;;;;;;15.01;93.23;96344.91;5015564;28;20412;-79
2021/07/21 05:34:59;;;;;;;20.67;12.60;;;;;;;15.27;90.23;96344.81;5014333;28;20481;-77
2021/07/21 05:37:24;;;;;;;12.13;10.80;;;;;;;15.16;91.43;96350.81;5006680;28;20429;-78
2021/07/21 05:39:49;;;;;;;13.13;11.50;;;;;;;15.10;92.22;96354.72;5013716;28;20439;-78
2021/07/21 05:42:16;;;;;;;16.30;11.07;;;;;;;15.18;91.74;96354.16;5022979;28;20428;-78
2021/07/21 05:44:42;;;;;;;14.43;10.77;;;;;;;15.41;91.54;96347.25;5018710;28;20910;-76
2021/07/21 05:47:07;;;;;;;17.27;11.50;;;;;;;15.38;91.95;96348.31;5014080;28;20479;-77
2021/07/21 05:49:32;;;;;;;16.27;11.27;;;;;;;15.47;91.17;96355.50;5015523;28;20447;-77
2021/07/21 05:51:58;;;;;;;11.75;10.55;;;;;;;15.60;91.36;96360.63;5014619;28;20993;-77
2021/07/21 05:54:23;;;;;;;10.57;9.17;;;;;;;15.90;91.14;96360.16;5007201;28;20936;-79
2021/07/21 05:56:49;;;;;;;12.97;10.07;;;;;;;16.06;91.38;96365.09;4994411;28;20453;-78
2021/07/21 05:59:17;;;;;;;15.37;10.67;;;;;;;16.27;90.06;96356.56;5013966;28;20421;-74
2021/07/21 06:01:42;;;;;;;13.60;10.85;;;;;;;16.27;89.59;96374.88;5013556;28;20938;-75
2021/07/21 06:04:08;;;;;;;11.37;9.57;;;;;;;16.30;90.47;96369.41;5013956;28;20424;-77
2021/07/21 06:06:34;;;;;;;12.05;10.27;;;;;;;16.43;88.57;96368.38;5016126;28;20416;-78
2021/07/21 06:08:59;;;;;;;13.43;9.35;;;;;;;16.34;83.96;96368.22;5002427;28;20446;-78
2021/07/21 06:11:24;;;;;;;14.02;9.00;;;;;;;16.05;82.87;96375.66;4993763;28;20442;-78
2021/07/21 06:13:50;;;;;;;11.82;8.90;;;;;;;16.01;83.23;96371.59;4993663;28;20788;-78
2021/07/21 06:16:19;;;;;;;12.30;9.60;;;;;;;16.06;83.55;96374.72;4992892;28;20422;-78
2021/07/21 06:18:44;;;;;;;12.82;9.50;;;;;;;16.33;83.95;96377.84;5011023;28;20562;-78
2021/07/21 06:21:10;;;;;;;15.70;10.63;;;;;;;16.62;83.96;96375.63;5014439;28;20425;-78
2021/07/21 06:23:35;;;;;;;15.20;9.50;;;;;;;16.85;81.06;96379.09;5014114;28;20891;-78
2021/07/21 06:26:01;;;;;;;21.27;9.43;;;;;;;17.10;80.55;96377.16;5014116;28;20424;-78
2021/07/21 06:28:26;;;;;;;12.27;9.27;;;;;;;17.39;80.79;96377.44;5013147;28;20523;-78
2021/07/21 06:30:52;;;;;;;13.65;9.90;;;;;;;17.63;77.82;96385.94;5015023;28;20440;-78
2021/07/21 06:33:19;;;;;;;13.97;9.40;;;;;;;18.09;75.72;96382.19;5015483;28;20409;-78
2021/07/21 06:35:45;;;;;;;15.73;10.10;;;;;;;18.30;73.58;96386.59;5014684;28;21006;-78
2021/07/21 06:38:10;;;;;;;12.95;9.50;;;;;;;18.60;73.57;96388.44;5015090;28;20432;-78
2021/07/21 06:40:36;;;;;;;14.23;9.60;;;;;;;18.22;72.00;96389.88;5014947;28;20914;-78
2021/07/21 06:43:01;;;;;;;14.40;9.53;;;;;;;18.40;73.24;96394.53;5016141;28;20452;-78
2021/07/21 06:45:26;;;;;;;12.73;9.55;;;;;;;18.50;73.50;96396.25;5015249;28;20503;-78
2021/07/21 06:47:52;;;;;;;12.73;8.67;;;;;;;18.92;76.01;96400.63;5013269;28;20416;-76
2021/07/21 06:50:19;;;;;;;13.70;9.40;;;;;;;19.16;73.12;96405.53;5032981;28;20411;-76
2021/07/21 06:52:45;;;;;;;15.55;9.95;;;;;;;19.19;74.54;96397.41;5032721;28;20829;-78
2021/07/21 06:55:10;;;;;;;12.07;9.67;;;;;;;19.30;71.25;96397.28;5033160;28;20435;-72
2021/07/21 06:57:36;;;;;;;13.20;9.97;;;;;;;19.41;73.99;96398.97;5032845;28;20411;-76
2021/07/21 07:00:02;;;;;;;15.73;9.90;;;;;;;19.64;70.50;96404.84;5019077;28;20420;-76
2021/07/21 07:02:28;;;;;;;13.73;9.48;;;;;;;19.78;71.79;96407.06;5012893;28;20435;-77
2021/07/21 07:04:54;;;;;;;14.13;9.57;;;;;;;19.98;69.57;96405.25;5013222;28;20416;-76
2021/07/21 07:07:20;;;;;;;14.38;10.25;;;;;;;19.96;70.78;96401.94;5012666;28;20482;-76
2021/07/21 07:09:46;;;;;;;17.02;9.20;;;;;;;20.13;68.16;96416.19;5012801;28;20423;-77
2021/07/21 07:12:11;;;;;;;13.80;9.77;;;;;;;20.36;71.37;96414.06;5011760;28;20498;-76
2021/07/21 07:14:37;;;;;;;13.32;9.25;;;;;;;20.48;66.33;96413.78;5018790;28;20429;-76
2021/07/21 07:17:03;;;;;;;13.65;9.35;;;;;;;20.59;66.93;96417.28;5012088;28;20412;-77
2021/07/21 07:19:28;;;;;;;11.30;9.32;;;;;;;20.38;66.18;96412.16;5013237;28;20448;-78
2021/07/21 07:21:53;;;;;;;11.53;8.53;;;;;;;20.77;68.80;96418.19;5012928;28;20424;-74
2021/07/21 07:24:20;;;;;;;13.87;8.70;;;;;;;20.88;66.71;96410.13;5012433;28;20483;-78
2021/07/21 07:26:46;;;;;;;11.98;8.20;;;;;;;20.99;65.71;96411.75;5012086;28;20405;-78
2021/07/21 07:29:12;;;;;;;11.52;8.95;;;;;;;21.09;65.11;96409.03;5010464;28;20471;-76
2021/07/21 07:31:37;;;;;;;13.05;8.35;;;;;;;21.12;64.88;96403.50;5012268;28;20417;-75
2021/07/21 07:34:03;;;;;;;10.50;8.55;;;;;;;20.91;61.38;96414.25;5012296;28;20424;-77
2021/07/21 07:36:28;;;;;;;11.23;7.57;;;;;;;21.12;64.11;96411.38;5011998;28;20444;-78
2021/07/21 07:38:54;;;;;;;16.53;8.90;;;;;;;21.41;64.99;96411.28;5011164;28;20519;-78
2021/07/21 07:41:21;;;;;;;10.50;8.48;;;;;;;21.60;64.20;96412.97;5012345;28;20478;-77
2021/07/21 07:43:47;;;;;;;12.07;7.95;;;;;;;21.53;64.56;96403.97;5012850;28;20408;-79
2021/07/21 07:46:12;;;;;;;9.63;7.80;;;;;;;21.57;61.03;96405.34;5013247;28;20808;-79
2021/07/21 07:48:38;;;;;;;11.00;7.90;;;;;;;21.61;62.46;96404.88;5019732;28;20958;-79
2021/07/21 07:51:03;;;;;;;14.13;8.45;;;;;;;21.48;60.84;96404.44;5033877;28;20473;-78
2021/07/21 07:53:28;;;;;;;12.83;8.60;;;;;;;21.47;62.05;96406.25;5033055;28;20415;-78
2021/07/21 07:55:54;;;;;;;16.17;8.80;;;;;;;21.58;59.91;96404.34;5027944;28;20435;-77
2021/07/21 07:58:21;;;;;;;16.52;8.70;;;;;;;21.70;63.43;96403.19;5007645;28;20409;-78
2021/07/21 08:00:47;;;;;;;12.70;8.48;;;;;;;21.71;58.57;96402.19;5011759;28;20424;-78
2021/07/21 08:03:12;;;;;;;12.35;8.10;;;;;;;21.65;59.29;96394.88;5016897;23;20440;-76
2021/07/21 08:05:38;;;;;;;11.73;8.70;;;;;;;21.93;60.86;96393.84;4991611;28;20459;-75
2021/07/21 08:08:04;;;;;;;12.33;8.40;;;;;;;22.04;58.80;96403.31;4995506;28;20504;-75
2021/07/21 08:10:30;;;;;;;13.73;8.02;;;;;;;21.78;61.71;96403.25;5003581;28;20409;-75
2021/07/21 08:12:55;;;;;;;10.07;7.88;;;;;;;21.93;62.02;96404.38;5010268;28;20782;-75
2021/07/21 08:15:23;;;;;;;15.23;8.45;;;;;;;21.79;59.68;96397.00;5005754;28;20417;-75
2021/07/21 08:17:48;;;;;;;13.80;8.52;;;;;;;21.74;61.56;96400.09;5003013;28;20981;-75
2021/07/21 08:20:14;;;;;;;11.65;8.68;;;;;;;21.84;57.44;96405.31;5002732;28;20507;-75
2021/07/21 08:22:40;;;;;;;11.10;9.00;;;;;;;21.90;58.90;96401.22;5003084;28;20494;-76
2021/07/21 08:25:07;;;;;;;11.93;8.55;;;;;;;22.03;60.36;96400.84;4980328;28;20488;-76
2021/07/21 08:27:33;;;;;;;10.80;8.70;;;;;;;22.08;61.79;96395.94;4988157;28;20529;-78
2021/07/21 08:29:58;;;;;;;13.23;8.33;;;;;;;21.93;57.95;96403.56;4975929;28;20519;-76
2021/07/21 08:32:25;;;;;;;17.75;8.85;;;;;;;21.97;59.90;96400.47;5011648;28;20436;-77
2021/07/21 08:34:50;;;;;;;9.25;8.00;;;;;;;22.30;56.21;96398.13;5002595;28;20428;-76
2021/07/21 08:37:16;;;;;;;13.67;8.53;;;;;;;22.27;59.23;96394.97;4992484;28;20436;-76
2021/07/21 08:39:41;;;;;;;13.23;8.65;;;;;;;22.50;55.77;96398.75;4995797;28;20450;-77
2021/07/21 08:42:07;;;;;;;13.00;8.23;;;;;;;22.59;57.33;96402.28;4991829;28;20528;-77
2021/07/21 08:44:33;;;;;;;11.55;8.73;;;;;;;22.76;57.08;96397.91;4990568;28;20414;-76
2021/07/21 08:46:58;;;;;;;16.73;8.30;;;;;;;22.68;56.17;96396.06;4990694;28;20454;-77
2021/07/21 08:49:25;;;;;;;11.43;8.50;;;;;;;22.46;57.38;96395.59;4991513;28;20417;-77
2021/07/21 08:51:53;;;;;;;15.47;8.40;;;;;;;22.40;57.67;96393.59;4991881;28;20942;-77
2021/07/21 08:54:19;;;;;;;10.32;8.32;;;;;;;21.90;54.81;96404.69;4990454;28;20432;-78
2021/07/21 08:56:45;;;;;;;10.68;8.25;;;;;;;22.32;53.77;96397.97;4992586;28;20482;-78
2021/07/21 08:59:14;;;;;;;15.15;8.25;;;;;;;22.71;54.51;96399.22;4992622;28;20473;-76
2021/07/21 09:01:40;;;;;;;11.60;8.15;;;;;;;23.08;59.31;96398.13;4991782;28;20451;-76
2021/07/21 09:04:06;;;;;;;13.05;7.93;;;;;;;22.96;52.61;96402.03;4998902;28;20438;-76
2021/07/21 09:06:33;;;;;;;10.37;8.23;;;;;;;23.16;57.20;96399.97;4990487;28;20430;-78
2021/07/21 09:08:58;;;;;;;16.55;8.50;;;;;;;23.21;52.86;96402.94;4990456;28;20426;-76
2021/07/21 09:11:24;;;;;;;14.07;8.93;;;;;;;22.89;55.56;96404.44;4990196;28;20792;-77
2021/07/21 09:13:50;;;;;;;12.38;8.45;;;;;;;22.78;51.26;96399.44;4991365;28;20411;-76
2021/07/21 09:16:16;;;;;;;10.40;8.57;;;;;;;23.05;52.66;96394.97;4989776;28;20485;-76
2021/07/21 09:18:49;;;;;;;13.82;8.38;;;;;;;23.04;51.95;96396.78;4997578;28;20463;-77
2021/07/21 09:21:16;;;;;;;14.75;8.73;;;;;;;22.41;52.95;96402.34;5009975;28;21188;-76
2021/07/21 09:23:44;;;;;;;11.05;8.38;;;;;;;22.14;54.06;96408.56;5011279;28;20452;-76
2021/07/21 09:26:12;;;;;;;13.80;8.47;;;;;;;22.75;56.31;96401.56;5010996;28;20790;-76
2021/07/21 09:28:40;;;;;;;11.30;8.27;;;;;;;22.92;50.29;96405.97;5011058;28;20501;-76
2021/07/21 09:31:07;;;;;;;11.65;8.57;;;;;;;23.55;52.70;96400.28;5011070;28;20956;-76
2021/07/21 09:33:34;;;;;;;11.95;8.65;;;;;;;23.74;55.22;96414.22;5010914;28;20463;-75
2021/07/21 09:35:59;;;;;;;14.98;8.35;;;;;;;23.93;49.96;96403.34;5010879;28;20424;-76
2021/07/21 09:38:27;;;;;;;12.00;7.80;;;;;;;23.81;50.88;96405.47;5009763;28;20850;-76
2021/07/21 09:40:57;;;;;;;11.90;8.52;;;;;;;23.88;52.68;96403.84;5011066;28;21041;-76
2021/07/21 09:43:25;;;;;;;11.85;7.80;;;;;;;23.52;52.04;96413.00;5010793;28;20421;-76
2021/07/21 09:45:51;;;;;;;10.52;8.02;;;;;;;23.71;50.84;96404.78;5010918;28;20501;-76
2021/07/21 09:48:20;;;;;;;14.43;9.27;;;;;;;23.04;50.64;96411.81;5010718;28;20527;-76
2021/07/21 09:50:47;;;;;;;14.32;8.82;;;;;;;23.87;55.61;96410.09;5010995;28;20475;-76
2021/07/21 09:53:14;;;;;;;14.55;8.60;;;;;;;24.20;54.48;96411.94;5014140;28;20835;-76
2021/07/21 09:55:41;;;;;;;12.27;8.88;;;;;;;24.08;51.16;96408.81;5014148;28;20412;-76
2021/07/21 09:58:10;;;;;;;13.88;9.10;;;;;;;24.04;50.84;96402.19;5014464;28;20893;-76
2021/07/21 10:00:37;;;;;;;11.77;7.95;;;;;;;24.32;54.19;96406.16;4996125;28;20788;-77
2021/07/21 10:03:17;;;;;;;11.00;8.35;;;;;;;24.09;50.88;96406.00;4994577;28;20788;-76
2021/07/21 10:05:56;;;;;;;16.20;9.85;;;;;;;24.15;50.54;96410.63;4994163;28;20835;-77
2021/07/21 10:08:42;;;;;;;13.70;8.53;;;;;;;24.50;51.94;96402.53;4993429;28;20457;-78
2021/07/21 10:11:26;;;;;;;14.23;9.23;;;;;;;24.29;50.55;96409.16;4994620;28;20453;-75
2021/07/21 10:13:55;;;;;;;12.57;9.40;;;;;;;23.88;48.51;96410.97;4994512;28;20422;-77
2021/07/21 10:16:42;;;;;;;11.30;9.18;;;;;;;24.22;50.06;96416.09;4994265;28;20513;-77
2021/07/21 10:19:10;;;;;;;13.50;9.23;;;;;;;23.69;48.29;96419.97;4994327;28;20477;-77
2021/07/21 10:21:37;;;;;;;11.00;8.93;;;;;;;23.83;48.83;96408.78;4994439;28;20808;-77
2021/07/21 10:24:04;;;;;;;17.17;10.43;;;;;;;23.30;49.98;96412.56;4993182;28;20429;-77
2021/07/21 10:26:29;;;;;;;10.98;9.07;;;;;;;23.99;51.50;96415.06;4993975;28;20406;-77
2021/07/21 10:28:58;;;;;;;12.10;9.07;;;;;;;24.23;48.15;96415.09;4992729;28;20795;-76
2021/07/21 10:31:24;;;;;;;14.13;9.43;;;;;;;24.54;53.07;96412.63;4993951;28;20491;-77
2021/07/21 10:33:50;;;;;;;19.10;9.20;;;;;;;24.83;48.65;96411.25;4994109;28;20498;-77
2021/07/21 10:36:17;;;;;;;12.13;8.73;;;;;;;24.49;51.29;96411.47;4993742;28;20418;-76
2021/07/21 10:38:42;;;;;;;10.10;8.88;;;;;;;25.00;48.79;96409.41;4993678;28;20415;-77
2021/07/21 10:41:08;;;;;;;14.83;9.73;;;;;;;25.11;49.76;96403.75;4990734;28;20885;-77
2021/07/21 10:43:33;;;;;;;13.93;9.48;;;;;;;25.10;49.66;96402.09;4993076;28;20430;-77
2021/07/21 10:46:02;;;;;;;14.80;10.57;;;;;;;24.95;49.16;96409.06;4988773;28;20441;-77
2021/07/21 10:48:42;;;;;;;11.32;9.48;;;;;;;25.13;52.13;96396.44;4989280;28;20430;-77
2021/07/21 10:51:26;;;;;;;10.95;8.45;;;;;;;25.12;49.59;96396.63;4993240;28;20456;-76
2021/07/21 10:54:05;;;;;;;14.48;10.05;;;;;;;24.77;54.02;96404.81;4993569;28;20779;-77
2021/07/21 10:59:19;;;;;;;18.40;10.20;;;;;;;24.81;51.44;96400.00;4993328;28;20869;-76
2021/07/21 11:01:47;;;;;;;16.17;10.88;;;;;;;24.97;49.81;96407.91;4993596;28;20509;-77
2021/07/21 11:04:13;;;;;;;14.00;9.87;;;;;;;24.79;49.31;96399.34;4990906;28;20594;-76
2021/07/21 11:06:41;;;;;;;13.30;10.10;;;;;;;25.00;47.56;96391.66;4993317;28;20871;-76
2021/07/21 11:09:20;;;;;;;21.67;10.37;;;;;;;25.20;50.79;96391.28;4992504;28;20785;-77
2021/07/21 11:11:49;;;;;;;14.18;11.07;;;;;;;25.03;50.66;96393.13;4992112;28;20457;-74
2021/07/21 11:14:16;;;;;;;12.57;9.32;;;;;;;25.10;49.10;96387.03;4993464;28;20468;-76
2021/07/21 11:16:46;;;;;;;12.88;9.48;;;;;;;25.13;49.52;96393.78;4991748;28;20766;-76
2021/07/21 11:19:33;;;;;;;14.02;10.73;;;;;;;24.76;47.18;96389.91;4992552;28;20450;-76
2021/07/21 11:22:00;;;;;;;13.47;10.20;;;;;;;25.19;53.28;96387.00;4993151;28;20436;-75
2021/07/21 11:24:29;;;;;;;18.48;9.48;;;;;;;25.47;49.55;96385.50;4993314;28;20796;-75
2021/07/21 11:26:55;;;;;;;13.32;8.90;;;;;;;25.29;48.51;96385.78;4993262;28;20784;-77
2021/07/21 11:29:54;;;;;;;11.80;10.00;;;;;;;24.21;49.18;96387.94;4993052;28;20427;-77